createdAt,value
2022-08-28T00:02:00.935Z,68.45
2022-08-28T00:04:28.191Z,68.53
2022-08-28T00:06:55.214Z,69.07
2022-08-28T00:09:22.156Z,68.76
2022-08-28T00:11:50.559Z,69.42
2022-08-28T00:14:21.713Z,69.23
2022-08-28T00:16:49.030Z,69.29
2022-08-28T00:19:16.406Z,69.34
2022-08-28T00:21:44.258Z,69.45
2022-08-28T00:24:11.776Z,69.50
2022-08-28T00:26:57.458Z,69.73
2022-08-28T00:29:25.882Z,69.83
2022-08-28T00:31:52.877Z,70.19
2022-08-28T00:34:19.764Z,69.65
2022-08-28T00:36:55.422Z,70.34
2022-08-28T00:39:22.258Z,70.28
2022-08-28T00:41:50.804Z,70.28
2022-08-28T00:44:28.808Z,70.55
2022-08-28T00:46:58.025Z,70.56
2022-08-28T00:49:28.645Z,70.09
2022-08-28T00:52:05.918Z,70.29
2022-08-28T00:54:35.977Z,70.41
2022-08-28T00:57:05.070Z,70.46
2022-08-28T00:59:33.882Z,70.30
2022-08-28T01:02:01.314Z,70.55
2022-08-28T01:04:32.297Z,70.65
2022-08-28T01:07:02.782Z,70.73
2022-08-28T01:09:32.576Z,70.72
2022-08-28T01:12:03.297Z,70.95
2022-08-28T01:14:33.867Z,70.89
2022-08-28T01:17:00.775Z,70.88
2022-08-28T01:19:31.917Z,70.80
2022-08-28T01:22:10.965Z,71.31
2022-08-28T01:24:40.778Z,70.85
2022-08-28T01:27:07.750Z,71.14
2022-08-28T01:29:34.661Z,70.59
2022-08-28T01:32:02.297Z,70.90
2022-08-28T01:34:30.252Z,70.46
2022-08-28T01:36:58.571Z,70.72
2022-08-28T01:39:30.442Z,70.99
2022-08-28T01:42:00.729Z,70.99
2022-08-28T01:44:28.280Z,71.05
2022-08-28T01:46:57.828Z,70.99
2022-08-28T01:49:25.827Z,70.89
2022-08-28T01:51:54.738Z,70.86
2022-08-28T01:54:23.969Z,70.72
2022-08-28T01:56:51.328Z,70.45
2022-08-28T01:59:19.708Z,70.75
2022-08-28T02:01:47.617Z,70.72
2022-08-28T02:04:14.992Z,70.46
2022-08-28T02:06:42.046Z,71.04
2022-08-28T02:09:11.593Z,71.15
2022-08-28T02:11:45.392Z,71.34
2022-08-28T02:14:14.206Z,71.28
2022-08-28T02:16:42.498Z,71.24
2022-08-28T02:19:09.828Z,71.29
2022-08-28T02:21:36.713Z,71.56
2022-08-28T02:24:04.935Z,72.01
2022-08-28T02:26:33.151Z,71.94
2022-08-28T02:29:00.092Z,72.36
2022-08-28T02:31:27.499Z,72.18
2022-08-28T02:33:55.885Z,72.34
2022-08-28T02:36:23.725Z,72.34
2022-08-28T02:38:57.371Z,73.10
2022-08-28T02:41:24.618Z,72.97
2022-08-28T02:43:51.431Z,73.29
2022-08-28T02:46:18.387Z,73.24
2022-08-28T02:48:45.674Z,73.89
2022-08-28T02:51:14.984Z,73.42
2022-08-28T02:53:42.898Z,73.97
2022-08-28T02:56:10.327Z,73.66
2022-08-28T02:58:37.382Z,73.54
2022-08-28T03:01:06.984Z,73.05
2022-08-28T03:03:34.374Z,73.20
2022-08-28T03:06:02.666Z,73.28
2022-08-28T03:08:32.269Z,73.30
2022-08-28T03:11:00.304Z,73.06
2022-08-28T03:13:27.602Z,72.89
2022-08-28T03:15:55.808Z,73.13
2022-08-28T03:18:23.670Z,73.35
2022-08-28T03:20:50.543Z,73.25
2022-08-28T03:23:26.419Z,73.44
2022-08-28T03:25:55.994Z,73.17
2022-08-28T03:28:23.549Z,73.10
2022-08-28T03:30:50.985Z,73.22
2022-08-28T03:33:19.887Z,73.30
2022-08-28T03:35:47.086Z,73.26
2022-08-28T03:38:14.112Z,73.24
2022-08-28T03:40:42.526Z,73.41
2022-08-28T03:43:12.212Z,73.61
2022-08-28T03:45:39.988Z,73.50
2022-08-28T03:48:07.345Z,73.52
2022-08-28T03:50:34.900Z,73.51
2022-08-28T03:53:02.716Z,73.58
2022-08-28T03:55:30.305Z,73.55
2022-08-28T03:57:57.191Z,73.52
2022-08-28T04:00:25.584Z,73.60
2022-08-28T04:02:53.753Z,73.90
2022-08-28T04:05:20.673Z,74.20
2022-08-28T04:07:48.219Z,74.52
2022-08-28T04:10:15.100Z,74.24
2022-08-28T04:12:42.079Z,74.00
2022-08-28T04:15:11.681Z,74.06
2022-08-28T04:17:41.155Z,73.97
2022-08-28T04:20:09.516Z,74.16
2022-08-28T04:22:37.241Z,74.55
2022-08-28T04:25:04.952Z,74.62
2022-08-28T04:27:31.938Z,74.93
2022-08-28T04:29:59.219Z,74.61
2022-08-28T04:32:26.458Z,74.99
2022-08-28T04:34:54.668Z,74.59
2022-08-28T04:37:21.687Z,75.44
2022-08-28T04:39:51.415Z,75.17
2022-08-28T04:42:18.364Z,75.49
2022-08-28T04:44:45.418Z,75.88
2022-08-28T04:47:12.247Z,75.35
2022-08-28T04:49:39.729Z,75.69
2022-08-28T04:52:08.040Z,76.07
2022-08-28T04:54:35.432Z,76.01
2022-08-28T04:57:02.793Z,75.78
2022-08-28T04:59:34.321Z,75.88
2022-08-28T05:02:02.944Z,75.42
2022-08-28T05:04:29.859Z,76.78
2022-08-28T05:06:56.737Z,75.88
2022-08-28T05:09:24.926Z,75.40
2022-08-28T05:11:53.425Z,75.73
2022-08-28T05:14:21.830Z,75.66
2022-08-28T05:16:51.103Z,75.85
2022-08-28T05:19:19.770Z,75.61
2022-08-28T05:21:47.203Z,75.45
2022-08-28T05:24:14.126Z,75.38
2022-08-28T05:26:42.929Z,74.40
2022-08-28T05:29:10.696Z,73.71
2022-08-28T05:31:39.068Z,73.80
2022-08-28T05:34:07.417Z,73.79
2022-08-28T05:36:36.684Z,73.82
2022-08-28T05:39:06.191Z,74.23
2022-08-28T05:41:33.918Z,74.45
2022-08-28T05:44:04.759Z,74.25
2022-08-28T05:46:32.262Z,74.50
2022-08-28T05:49:00.405Z,74.42
2022-08-28T05:51:28.454Z,74.50
2022-08-28T05:53:57.606Z,73.76
2022-08-28T05:56:25.997Z,73.13
2022-08-28T05:58:53.075Z,72.35
2022-08-28T06:01:23.330Z,72.33
2022-08-28T06:03:55.023Z,71.21
2022-08-28T06:06:24.732Z,70.58
2022-08-28T06:08:58.225Z,69.11
2022-08-28T06:11:26.701Z,67.51
2022-08-28T06:13:53.698Z,67.48
2022-08-28T06:16:22.407Z,65.65
2022-08-28T06:18:51.002Z,66.19
2022-08-28T06:21:17.967Z,64.64
2022-08-28T06:23:44.844Z,64.17
2022-08-28T06:26:11.787Z,64.93
2022-08-28T06:28:38.658Z,63.19
2022-08-28T06:31:24.548Z,61.93
2022-08-28T06:33:54.827Z,60.44
2022-08-28T06:36:22.042Z,60.39
2022-08-28T06:38:49.000Z,58.66
2022-08-28T06:41:16.146Z,57.70
2022-08-28T06:43:43.103Z,58.04
2022-08-28T06:46:10.188Z,59.05
2022-08-28T06:48:37.363Z,58.59
2022-08-28T06:51:09.404Z,59.72
2022-08-28T06:53:37.687Z,58.47
2022-08-28T06:56:07.279Z,57.64
2022-08-28T06:58:35.241Z,57.79
2022-08-28T07:01:05.396Z,57.83
2022-08-28T07:03:33.228Z,56.74
2022-08-28T07:06:01.461Z,57.07
2022-08-28T07:08:30.290Z,56.73
2022-08-28T07:10:58.492Z,56.22
2022-08-28T07:13:25.758Z,54.74
2022-08-28T07:15:52.769Z,57.19
2022-08-28T07:18:20.214Z,56.81
2022-08-28T07:20:55.630Z,56.38
2022-08-28T07:23:22.579Z,56.43
2022-08-28T07:25:51.039Z,55.79
2022-08-28T07:28:17.994Z,54.32
2022-08-28T07:30:45.048Z,56.18
2022-08-28T07:33:12.143Z,57.86
2022-08-28T07:35:43.311Z,57.39
2022-08-28T07:38:10.005Z,56.16
2022-08-28T07:40:36.910Z,57.26
2022-08-28T07:43:23.552Z,56.68
2022-08-28T07:45:57.894Z,56.08
2022-08-28T07:48:25.251Z,56.63
2022-08-28T07:50:52.338Z,56.73
2022-08-28T07:53:19.474Z,56.10
2022-08-28T07:55:46.671Z,58.26
2022-08-28T07:58:14.982Z,58.57
2022-08-28T08:00:41.942Z,57.99
2022-08-28T08:03:08.913Z,57.10
2022-08-28T08:05:35.752Z,57.17
2022-08-28T08:08:02.846Z,56.36
2022-08-28T08:10:34.183Z,57.18
2022-08-28T08:13:01.251Z,56.47
2022-08-28T08:15:31.372Z,55.88
2022-08-28T08:17:58.481Z,57.05
2022-08-28T08:20:25.579Z,56.17
2022-08-28T08:22:52.495Z,56.99
2022-08-28T08:25:19.513Z,57.10
2022-08-28T08:27:48.146Z,59.27
2022-08-28T08:30:15.274Z,57.85
2022-08-28T08:32:43.485Z,56.90
2022-08-28T08:35:12.851Z,57.90
2022-08-28T08:37:39.763Z,57.23
2022-08-28T08:40:10.740Z,57.06
2022-08-28T08:42:38.614Z,56.44
2022-08-28T08:45:13.723Z,55.53
2022-08-28T08:47:48.115Z,54.42
2022-08-28T08:50:18.847Z,55.17
2022-08-28T08:52:53.495Z,55.63
2022-08-28T08:55:24.787Z,54.60
2022-08-28T08:57:57.215Z,53.27
2022-08-28T09:00:24.864Z,53.68
2022-08-28T09:03:00.523Z,53.67
2022-08-28T09:05:40.772Z,51.08
2022-08-28T09:08:15.935Z,52.50
2022-08-28T09:10:51.649Z,50.60
2022-08-28T09:13:25.423Z,51.64
2022-08-28T09:15:52.477Z,52.91
2022-08-28T09:18:23.568Z,53.15
2022-08-28T09:20:51.309Z,51.44
2022-08-28T09:23:18.894Z,51.01
2022-08-28T09:25:55.434Z,50.81
2022-08-28T09:28:25.077Z,50.27
2022-08-28T09:31:02.890Z,50.55
2022-08-28T09:33:38.555Z,51.40
2022-08-28T09:36:31.594Z,52.62
2022-08-28T09:39:12.081Z,49.83
2022-08-28T09:42:04.552Z,49.88
2022-08-28T09:44:31.950Z,50.21
2022-08-28T09:46:59.350Z,48.86
2022-08-28T09:49:30.123Z,49.13
2022-08-28T09:51:59.638Z,49.69
2022-08-28T09:54:31.901Z,49.12
2022-08-28T09:56:59.141Z,49.83
2022-08-28T09:59:28.866Z,48.46
2022-08-28T10:02:18.030Z,49.50
2022-08-28T10:04:58.918Z,49.58
2022-08-28T10:07:34.959Z,51.04
2022-08-28T10:10:17.056Z,51.06
2022-08-28T10:12:54.794Z,50.00
2022-08-28T10:15:30.248Z,47.41
2022-08-28T10:18:19.042Z,46.74
2022-08-28T10:20:54.969Z,46.93
2022-08-28T10:23:31.289Z,47.46
2022-08-28T10:26:08.031Z,47.61
2022-08-28T10:28:49.393Z,47.10
2022-08-28T10:31:22.663Z,48.43
2022-08-28T10:34:04.767Z,48.01
2022-08-28T10:36:35.375Z,49.64
2022-08-28T10:39:15.800Z,47.88
2022-08-28T10:41:47.985Z,48.91
2022-08-28T10:44:20.727Z,49.88
2022-08-28T10:46:52.028Z,49.38
2022-08-28T10:49:26.540Z,48.87
2022-08-28T10:52:01.002Z,48.35
2022-08-28T10:54:33.067Z,46.02
2022-08-28T10:57:08.740Z,44.88
2022-08-28T10:59:42.128Z,47.18
2022-08-28T11:02:13.737Z,46.20
2022-08-28T11:04:40.894Z,45.62
2022-08-28T11:07:13.424Z,44.83
2022-08-28T11:09:46.084Z,44.90
2022-08-28T11:12:36.012Z,44.73
2022-08-28T11:15:37.413Z,45.69
2022-08-28T11:18:31.037Z,44.44
2022-08-28T11:21:08.877Z,43.87
2022-08-28T11:23:43.833Z,44.54
2022-08-28T11:26:14.801Z,41.80
2022-08-28T11:28:46.591Z,42.77
2022-08-28T11:31:33.221Z,43.43
2022-08-28T11:34:02.507Z,44.57
2022-08-28T11:37:01.630Z,45.02
2022-08-28T11:39:30.127Z,46.14
2022-08-28T11:42:35.149Z,46.26
2022-08-28T11:45:02.658Z,44.61
2022-08-28T11:47:47.304Z,45.46
2022-08-28T11:50:24.075Z,45.15
2022-08-28T11:53:25.919Z,43.65
2022-08-28T11:56:31.353Z,41.99
2022-08-28T11:59:15.935Z,43.82
2022-08-28T12:01:43.307Z,42.37
2022-08-28T12:04:13.776Z,43.83
2022-08-28T12:06:52.390Z,42.14
2022-08-28T12:09:44.385Z,41.57
2022-08-28T12:12:13.976Z,40.56
2022-08-28T12:15:07.247Z,39.32
2022-08-28T12:17:49.141Z,39.27
2022-08-28T12:20:35.307Z,40.95
2022-08-28T12:23:23.702Z,41.88
2022-08-28T12:25:58.816Z,42.82
2022-08-28T12:28:31.860Z,43.14
2022-08-28T12:31:53.598Z,43.92
2022-08-28T12:34:28.977Z,44.36
2022-08-28T12:37:01.082Z,43.97
2022-08-28T12:39:30.686Z,43.51
2022-08-28T12:41:58.801Z,43.64
2022-08-28T12:44:27.958Z,43.67
2022-08-28T12:46:57.209Z,42.26
2022-08-28T12:49:31.895Z,41.76
2022-08-28T12:52:16.610Z,40.47
2022-08-28T12:54:44.358Z,40.83
2022-08-28T12:57:13.235Z,39.08
2022-08-28T12:59:42.563Z,39.40
2022-08-28T13:02:20.716Z,39.15
2022-08-28T13:04:55.539Z,38.83
2022-08-28T13:07:27.619Z,37.67
2022-08-28T13:09:56.746Z,38.45
2022-08-28T13:12:37.827Z,38.50
2022-08-28T13:15:55.239Z,38.05
2022-08-28T13:18:44.390Z,39.34
2022-08-28T13:21:33.994Z,40.75
2022-08-28T13:24:39.498Z,41.50
2022-08-28T13:27:15.889Z,42.30
2022-08-28T13:29:55.663Z,43.50
2022-08-28T13:32:30.693Z,43.46
2022-08-28T13:35:30.736Z,44.18
2022-08-28T13:37:59.841Z,41.44
2022-08-28T13:43:18.615Z,39.23
2022-08-28T13:45:48.704Z,40.22
2022-08-28T13:48:20.075Z,38.77
2022-08-28T13:50:49.906Z,38.66
2022-08-28T13:53:19.897Z,39.02
2022-08-28T13:55:49.196Z,39.45
2022-08-28T13:58:16.563Z,38.89
2022-08-28T14:00:46.158Z,38.23
2022-08-28T14:03:31.624Z,38.54
2022-08-28T14:05:59.906Z,38.19
2022-08-28T14:08:26.878Z,37.36
2022-08-28T14:10:53.791Z,37.58
2022-08-28T14:13:23.152Z,37.87
2022-08-28T14:15:50.150Z,38.18
2022-08-28T14:18:18.109Z,37.10
2022-08-28T14:20:45.036Z,35.99
2022-08-28T14:23:13.467Z,36.84
2022-08-28T14:25:42.229Z,35.89
2022-08-28T14:28:09.095Z,36.54
2022-08-28T14:30:40.734Z,36.51
2022-08-28T14:33:07.618Z,36.70
2022-08-28T14:35:38.778Z,37.55
2022-08-28T14:38:06.090Z,37.54
2022-08-28T14:40:35.723Z,37.94
2022-08-28T14:43:02.685Z,37.88
2022-08-28T14:45:29.665Z,38.01
2022-08-28T14:47:56.530Z,38.44
2022-08-28T14:50:23.358Z,39.58
2022-08-28T14:52:50.550Z,38.90
2022-08-28T14:55:18.804Z,39.07
2022-08-28T14:57:48.887Z,37.55
2022-08-28T15:00:18.351Z,36.97
2022-08-28T15:02:45.278Z,37.25
2022-08-28T15:05:12.148Z,36.45
2022-08-28T15:07:39.072Z,36.63
2022-08-28T15:10:09.595Z,35.66
2022-08-28T15:12:36.428Z,35.98
2022-08-28T15:15:09.806Z,35.58
2022-08-28T15:17:36.671Z,35.49
2022-08-28T15:20:04.911Z,35.59
2022-08-28T15:22:31.890Z,35.49
2022-08-28T15:24:58.782Z,36.59
2022-08-28T15:27:25.671Z,36.94
2022-08-28T15:29:53.704Z,37.76
2022-08-28T15:32:21.978Z,37.71
2022-08-28T15:34:48.821Z,37.57
2022-08-28T15:37:15.739Z,37.64
2022-08-28T15:40:00.901Z,37.41
2022-08-28T15:42:29.695Z,38.15
2022-08-28T15:44:57.048Z,38.47
2022-08-28T15:47:26.033Z,38.77
2022-08-28T15:49:55.244Z,39.08
2022-08-28T15:52:22.794Z,39.35
2022-08-28T15:54:49.700Z,39.25
2022-08-28T15:57:16.787Z,39.09
2022-08-28T15:59:48.698Z,38.51
2022-08-28T16:02:17.997Z,37.75
2022-08-28T16:04:46.338Z,38.87
2022-08-28T16:07:13.304Z,38.59
2022-08-28T16:09:40.154Z,38.91
2022-08-28T16:12:07.250Z,38.54
2022-08-28T16:14:34.322Z,38.49
2022-08-28T16:17:05.943Z,37.55
2022-08-28T16:19:38.406Z,37.88
2022-08-28T16:22:07.088Z,38.40
2022-08-28T16:24:34.506Z,38.94
2022-08-28T16:27:01.532Z,39.11
2022-08-28T16:29:28.708Z,39.08
2022-08-28T16:31:56.704Z,38.99
2022-08-28T16:34:27.063Z,39.30
2022-08-28T16:36:56.366Z,39.72
2022-08-28T16:39:24.626Z,40.03
2022-08-28T16:41:51.488Z,39.99
2022-08-28T16:44:19.550Z,39.31
2022-08-28T16:46:46.672Z,40.10
2022-08-28T16:49:13.679Z,39.85
2022-08-28T16:51:40.576Z,40.19
2022-08-28T16:54:07.737Z,40.61
2022-08-28T16:56:36.398Z,41.59
2022-08-28T16:59:03.957Z,41.30
2022-08-28T17:01:37.667Z,41.20
2022-08-28T17:04:07.737Z,41.09
2022-08-28T17:06:35.479Z,41.62
2022-08-28T17:09:02.355Z,41.58
2022-08-28T17:11:29.536Z,41.73
2022-08-28T17:13:58.124Z,41.77
2022-08-28T17:16:26.009Z,41.94
2022-08-28T17:18:53.107Z,42.03
2022-08-28T17:21:38.975Z,42.24
2022-08-28T17:24:06.911Z,42.08
2022-08-28T17:26:33.813Z,41.86
2022-08-28T17:29:02.920Z,41.76
2022-08-28T17:31:30.013Z,42.36
2022-08-28T17:33:57.300Z,42.45
2022-08-28T17:36:33.094Z,42.69
2022-08-28T17:39:03.196Z,41.99
2022-08-28T17:41:30.070Z,42.13
2022-08-28T17:43:56.935Z,42.19
2022-08-28T17:46:25.791Z,43.15
2022-08-28T17:48:55.926Z,42.71
2022-08-28T17:51:42.906Z,42.34
2022-08-28T17:54:11.926Z,42.71
2022-08-28T17:56:38.771Z,42.86
2022-08-28T17:59:05.627Z,43.13
2022-08-28T18:01:34.254Z,43.36
2022-08-28T18:04:01.238Z,44.26
2022-08-28T18:06:28.109Z,44.40
2022-08-28T18:08:55.021Z,44.25
2022-08-28T18:11:21.869Z,44.38
2022-08-28T18:13:48.759Z,44.19
2022-08-28T18:16:16.273Z,44.49
2022-08-28T18:18:44.545Z,44.41
2022-08-28T18:21:11.863Z,45.06
2022-08-28T18:23:39.898Z,45.60
2022-08-28T18:26:08.259Z,45.21
2022-08-28T18:28:35.353Z,45.84
2022-08-28T18:31:03.185Z,46.07
2022-08-28T18:33:30.102Z,45.97
2022-08-28T18:35:58.461Z,45.60
2022-08-28T18:38:28.547Z,45.49
2022-08-28T18:40:56.212Z,46.45
2022-08-28T18:43:24.010Z,45.85
2022-08-28T18:45:51.468Z,46.29
2022-08-28T18:48:19.226Z,46.45
2022-08-28T18:50:48.003Z,46.56
2022-08-28T18:53:17.567Z,46.90
2022-08-28T18:55:45.799Z,46.88
2022-08-28T18:58:15.348Z,46.85
2022-08-28T19:00:42.886Z,47.04
2022-08-28T19:03:10.230Z,47.50
2022-08-28T19:05:38.335Z,47.60
2022-08-28T19:08:05.431Z,47.28
2022-08-28T19:10:35.105Z,47.80
2022-08-28T19:13:02.752Z,47.79
2022-08-28T19:15:30.183Z,48.00
2022-08-28T19:18:00.330Z,47.84
2022-08-28T19:20:28.102Z,48.06
2022-08-28T19:22:55.784Z,48.24
2022-08-28T19:25:28.517Z,48.08
2022-08-28T19:27:59.138Z,48.54
2022-08-28T19:30:27.310Z,48.92
2022-08-28T19:32:54.245Z,49.52
2022-08-28T19:35:24.252Z,49.73
2022-08-28T19:37:51.686Z,49.69
2022-08-28T19:40:18.921Z,49.41
2022-08-28T19:42:46.175Z,49.90
2022-08-28T19:45:15.095Z,49.29
2022-08-28T19:47:44.115Z,49.76
2022-08-28T19:50:12.834Z,49.64
2022-08-28T19:52:41.020Z,49.84
2022-08-28T19:55:08.846Z,49.75
2022-08-28T19:57:35.807Z,50.57
2022-08-28T20:00:04.245Z,50.79
2022-08-28T20:02:32.470Z,50.60
2022-08-28T20:04:59.521Z,51.05
2022-08-28T20:07:26.367Z,51.22
2022-08-28T20:09:53.289Z,51.00
2022-08-28T20:12:20.155Z,51.28
2022-08-28T20:14:47.496Z,51.81
2022-08-28T20:17:14.290Z,51.64
2022-08-28T20:19:42.584Z,51.41
2022-08-28T20:22:09.463Z,51.89
2022-08-28T20:24:39.326Z,51.81
2022-08-28T20:27:06.351Z,51.82
2022-08-28T20:29:36.039Z,52.37
2022-08-28T20:32:03.568Z,52.94
2022-08-28T20:34:30.418Z,52.88
2022-08-28T20:36:58.789Z,52.51
2022-08-28T20:39:25.651Z,52.95
2022-08-28T20:41:52.568Z,53.08
2022-08-28T20:44:20.415Z,52.82
2022-08-28T20:46:51.208Z,53.35
2022-08-28T20:49:22.285Z,53.18
2022-08-28T20:52:01.027Z,53.07
2022-08-28T20:54:32.400Z,52.55
2022-08-28T20:57:01.835Z,52.49
2022-08-28T20:59:37.196Z,52.50
2022-08-28T21:02:08.295Z,52.68
2022-08-28T21:04:37.123Z,52.72
2022-08-28T21:07:07.101Z,52.62
2022-08-28T21:10:04.287Z,52.79
2022-08-28T21:12:22.511Z,53.26
2022-08-28T21:14:52.835Z,54.19
2022-08-28T21:17:28.869Z,54.87
2022-08-28T21:19:57.244Z,55.66
2022-08-28T21:22:24.218Z,56.17
2022-08-28T21:24:52.530Z,55.46
2022-08-28T21:27:19.381Z,56.68
2022-08-28T21:29:46.257Z,57.22
2022-08-28T21:32:13.139Z,57.39
2022-08-28T21:34:40.223Z,57.59
2022-08-28T21:37:07.054Z,58.15
2022-08-28T21:39:34.547Z,57.52
2022-08-28T21:42:03.301Z,58.66
2022-08-28T21:44:30.165Z,59.36
2022-08-28T21:47:00.542Z,59.55
2022-08-28T21:49:28.012Z,59.42
2022-08-28T21:51:54.834Z,59.35
2022-08-28T21:54:23.048Z,59.23
2022-08-28T21:56:56.246Z,60.17
2022-08-28T21:59:32.592Z,59.38
2022-08-28T22:02:05.199Z,58.93
2022-08-28T22:04:32.496Z,58.67
2022-08-28T22:06:59.363Z,58.54
2022-08-28T22:09:26.457Z,58.81
2022-08-28T22:11:53.980Z,58.69
2022-08-28T22:14:21.024Z,57.96
2022-08-28T22:16:49.432Z,57.41
2022-08-28T22:19:16.344Z,56.92
2022-08-28T22:22:01.877Z,57.10
2022-08-28T22:24:28.981Z,56.60
2022-08-28T22:26:57.753Z,55.92
2022-08-28T22:29:24.892Z,55.67
2022-08-28T22:31:53.244Z,55.31
2022-08-28T22:34:20.136Z,54.95
2022-08-28T22:36:47.082Z,54.78
2022-08-28T22:39:14.280Z,54.68
2022-08-28T22:41:42.080Z,54.82
2022-08-28T22:44:09.913Z,54.59
2022-08-28T22:46:36.830Z,53.84
2022-08-28T22:49:05.199Z,53.48
2022-08-28T22:51:34.317Z,53.37
2022-08-28T22:54:01.484Z,52.79
2022-08-28T22:56:28.429Z,52.93
2022-08-28T22:58:55.278Z,52.42
2022-08-28T23:01:24.837Z,52.00
2022-08-28T23:03:51.872Z,52.19
2022-08-28T23:06:21.590Z,51.96
2022-08-28T23:08:48.695Z,52.23
2022-08-28T23:11:15.568Z,51.78
2022-08-28T23:13:42.476Z,52.25
2022-08-28T23:16:10.786Z,52.56
2022-08-28T23:19:04.213Z,52.21
2022-08-28T23:21:28.373Z,52.39
2022-08-28T23:23:55.758Z,52.06
2022-08-28T23:26:23.650Z,51.71
2022-08-28T23:28:51.048Z,52.49
2022-08-28T23:31:18.192Z,52.65
2022-08-28T23:33:46.286Z,52.98
2022-08-28T23:36:14.711Z,53.34
2022-08-28T23:38:43.302Z,52.42
2022-08-28T23:41:10.474Z,52.88
2022-08-28T23:43:37.566Z,52.94
2022-08-28T23:46:05.480Z,53.28
2022-08-28T23:48:32.758Z,53.50
2022-08-28T23:50:59.831Z,53.04
2022-08-28T23:53:27.032Z,53.37
2022-08-28T23:55:55.623Z,52.94
2022-08-28T23:58:22.717Z,53.22
